createdAt,value
2022-08-02T00:00:43.472Z,507.00
2022-08-02T00:05:42.483Z,518.00
2022-08-02T00:10:41.711Z,497.00
2022-08-02T00:15:39.880Z,536.00
2022-08-02T00:20:40.073Z,506.00
2022-08-02T00:25:55.585Z,517.00
2022-08-02T00:30:37.432Z,527.00
2022-08-02T00:35:40.713Z,533.00
2022-08-02T00:40:35.851Z,540.00
2022-08-02T00:46:03.037Z,522.00
2022-08-02T00:50:34.275Z,557.00
2022-08-02T00:55:33.453Z,502.00
2022-08-02T01:00:33.634Z,515.00
2022-08-02T01:05:46.934Z,544.00
2022-08-02T01:10:32.138Z,507.00
2022-08-02T01:15:35.995Z,541.00
2022-08-02T01:20:32.653Z,512.00
2022-08-02T01:25:29.800Z,543.00
2022-08-02T01:30:28.965Z,466.00
2022-08-02T01:35:27.131Z,498.00
2022-08-02T01:40:26.328Z,506.00
2022-08-02T01:45:24.543Z,548.00
2022-08-02T01:50:25.773Z,529.00
2022-08-02T01:55:24.050Z,528.00
2022-08-02T02:00:23.209Z,529.00
2022-08-02T02:05:22.331Z,518.00
2022-08-02T02:10:22.694Z,535.00
2022-08-02T02:15:21.826Z,536.00
2022-08-02T02:20:20.126Z,543.00
2022-08-02T02:25:31.643Z,526.00
2022-08-02T02:30:19.636Z,555.00
2022-08-02T02:35:16.978Z,541.00
2022-08-02T02:40:17.108Z,540.00
2022-08-02T02:45:16.401Z,533.00
2022-08-02T02:50:16.704Z,538.00
2022-08-02T02:55:14.987Z,534.00
2022-08-02T03:00:14.299Z,522.00
2022-08-02T03:05:13.517Z,538.00
2022-08-02T03:10:15.605Z,541.00
2022-08-02T03:15:11.918Z,510.00
2022-08-02T03:20:12.237Z,537.00
2022-08-02T03:25:10.557Z,549.00
2022-08-02T03:30:09.875Z,499.00
2022-08-02T03:35:10.211Z,559.00
2022-08-02T03:40:08.504Z,540.00
2022-08-02T03:45:08.930Z,531.00
2022-08-02T03:50:07.016Z,537.00
2022-08-02T03:55:06.346Z,531.00
2022-08-02T04:00:07.496Z,553.00
2022-08-02T04:05:05.838Z,533.00
2022-08-02T04:10:03.986Z,517.00
2022-08-02T04:15:03.286Z,539.00
2022-08-02T04:20:02.576Z,543.00
2022-08-02T04:25:02.891Z,547.00
2022-08-02T04:30:01.108Z,543.00
2022-08-02T04:39:59.691Z,544.00
2022-08-02T04:44:58.826Z,526.00
2022-08-02T04:49:58.157Z,523.00
2022-08-02T04:54:57.463Z,541.00
2022-08-02T04:59:56.775Z,540.00
2022-08-02T05:04:56.079Z,523.00
2022-08-02T05:09:57.424Z,504.00
2022-08-02T05:14:56.703Z,532.00
2022-08-02T05:19:54.012Z,502.00
2022-08-02T05:24:53.316Z,512.00
2022-08-02T05:29:55.458Z,471.00
2022-08-02T05:34:51.913Z,518.00
2022-08-02T05:39:56.084Z,533.00
2022-08-02T05:44:52.425Z,545.00
2022-08-02T05:49:49.696Z,529.00
2022-08-02T05:54:48.994Z,538.00
2022-08-02T05:59:49.302Z,538.00
2022-08-02T06:04:48.597Z,546.00
2022-08-02T06:09:46.902Z,542.00
2022-08-02T06:14:49.259Z,540.00
2022-08-02T06:19:51.724Z,525.00
2022-08-02T06:24:44.584Z,535.00
2022-08-02T06:29:44.884Z,529.00
2022-08-02T06:34:45.240Z,538.00
2022-08-02T06:39:44.357Z,536.00
2022-08-02T06:44:48.997Z,542.00
2022-08-02T06:49:52.108Z,523.00
2022-08-02T06:54:41.982Z,526.00
2022-08-02T06:59:41.313Z,532.00
2022-08-02T07:04:38.627Z,530.00
2022-08-02T07:09:37.935Z,523.00
2022-08-02T07:14:38.231Z,533.00
2022-08-02T07:19:38.302Z,525.00
2022-08-02T07:24:35.692Z,524.00
2022-08-02T07:29:45.863Z,515.00
2022-08-02T07:34:35.161Z,488.00
2022-08-02T07:39:33.448Z,511.00
2022-08-02T07:44:32.627Z,494.00
2022-08-02T07:49:31.950Z,499.00
2022-08-02T07:54:32.079Z,505.00
2022-08-02T07:59:30.397Z,504.00
2022-08-02T08:04:30.699Z,498.00
2022-08-02T08:09:29.019Z,499.00
2022-08-02T08:14:28.312Z,506.00
2022-08-02T08:19:50.445Z,507.00
2022-08-02T08:24:28.786Z,510.00
2022-08-02T08:29:26.101Z,503.00
2022-08-02T08:34:25.417Z,500.00
2022-08-02T08:39:24.786Z,505.00
2022-08-02T08:44:23.894Z,500.00
2022-08-02T08:49:24.346Z,496.00
2022-08-02T08:54:22.461Z,495.00
2022-08-02T08:59:21.791Z,549.00
2022-08-02T09:04:21.944Z,543.00
2022-08-02T09:09:20.263Z,525.00
2022-08-02T09:14:19.590Z,524.00
2022-08-02T09:19:18.901Z,511.00
2022-08-02T09:24:20.221Z,498.00
2022-08-02T09:29:17.519Z,497.00
2022-08-02T09:34:19.861Z,526.00
2022-08-02T09:39:16.018Z,497.00
2022-08-02T09:44:16.381Z,562.00
2022-08-02T09:49:14.591Z,549.00
2022-08-02T09:54:15.713Z,527.00
2022-08-02T09:59:12.989Z,544.00
2022-08-02T10:04:17.359Z,538.00
2022-08-02T10:09:12.459Z,543.00
2022-08-02T10:14:11.805Z,535.00
2022-08-02T10:19:10.899Z,533.00
2022-08-02T10:24:09.372Z,538.00
2022-08-02T10:29:09.528Z,532.00
2022-08-02T10:34:07.667Z,535.00
2022-08-02T10:39:07.779Z,542.00
2022-08-02T10:44:06.113Z,533.00
2022-08-02T10:49:23.665Z,539.00
2022-08-02T10:54:05.893Z,537.00
2022-08-02T10:59:04.806Z,528.00
2022-08-02T11:04:09.797Z,527.00
2022-08-02T11:09:04.320Z,525.00
2022-08-02T11:14:00.568Z,523.00
2022-08-02T11:19:00.889Z,524.00
2022-08-02T11:24:01.207Z,515.00
2022-08-02T11:28:59.510Z,520.00
2022-08-02T11:33:59.805Z,513.00
2022-08-02T11:38:59.108Z,514.00
2022-08-02T11:43:57.319Z,511.00
2022-08-02T11:48:56.662Z,506.00
2022-08-02T11:53:55.785Z,503.00
2022-08-02T11:58:55.068Z,503.00
2022-08-02T12:03:54.414Z,504.00
2022-08-02T12:08:54.824Z,503.00
2022-08-02T12:13:57.019Z,497.00
2022-08-02T12:18:52.095Z,501.00
2022-08-02T12:23:57.071Z,498.00
2022-08-02T12:28:49.604Z,493.00
2022-08-02T12:33:49.928Z,496.00
2022-08-02T12:38:50.236Z,491.00
2022-08-02T12:43:48.598Z,489.00
2022-08-02T12:49:08.677Z,493.00
2022-08-02T12:53:59.072Z,495.00
2022-08-02T12:58:46.057Z,496.00
2022-08-02T13:04:09.504Z,492.00
2022-08-02T13:08:45.557Z,491.00
2022-08-02T13:13:43.679Z,492.00
2022-08-02T13:18:42.046Z,494.00
2022-08-02T13:23:54.444Z,491.00
2022-08-02T13:28:41.379Z,486.00
2022-08-02T13:33:40.506Z,484.00
2022-08-02T13:38:39.673Z,486.00
2022-08-02T13:43:53.307Z,489.00
2022-08-02T13:48:38.276Z,497.00
2022-08-02T13:53:37.367Z,499.00
2022-08-02T13:58:36.768Z,493.00
2022-08-02T14:04:05.729Z,490.00
2022-08-02T14:08:35.013Z,484.00
2022-08-02T14:13:36.264Z,482.00
2022-08-02T14:18:35.545Z,485.00
2022-08-02T14:23:50.240Z,482.00
2022-08-02T14:28:32.065Z,483.00
2022-08-02T14:33:32.385Z,479.00
2022-08-02T14:38:31.238Z,478.00
2022-08-02T14:43:29.997Z,477.00
2022-08-02T14:48:31.333Z,480.00
2022-08-02T14:53:28.644Z,488.00
2022-08-02T14:58:28.830Z,482.00
2022-08-02T15:03:29.772Z,482.00
2022-08-02T15:08:26.385Z,483.00
2022-08-02T15:13:23.730Z,488.00
2022-08-02T15:18:26.868Z,487.00
2022-08-02T15:23:24.195Z,488.00
2022-08-02T15:28:23.392Z,490.00
2022-08-02T15:33:22.726Z,489.00
2022-08-02T15:38:21.841Z,488.00
2022-08-02T15:43:21.181Z,491.00
2022-08-02T15:48:20.521Z,500.00
2022-08-02T15:53:19.864Z,500.00
2022-08-02T15:58:22.505Z,504.00
2022-08-02T16:03:18.219Z,510.00
2022-08-02T16:08:17.534Z,513.00
2022-08-02T16:13:16.884Z,510.00
2022-08-02T16:18:16.996Z,504.00
2022-08-02T16:23:15.312Z,506.00
2022-08-02T16:28:16.634Z,508.00
2022-08-02T16:33:14.946Z,508.00
2022-08-02T16:38:13.290Z,504.00
2022-08-02T16:43:13.454Z,501.00
2022-08-02T16:48:10.573Z,505.00
2022-08-02T16:53:13.269Z,501.00
2022-08-02T16:58:11.183Z,501.00
2022-08-02T17:03:13.224Z,500.00
2022-08-02T17:08:16.912Z,505.00
2022-08-02T17:13:11.186Z,504.00
2022-08-02T17:18:08.800Z,499.00
2022-08-02T17:23:07.308Z,498.00
2022-08-02T17:28:05.452Z,498.00
2022-08-02T17:33:05.744Z,501.00
2022-08-02T17:38:03.992Z,508.00
2022-08-02T17:43:03.328Z,502.00
2022-08-02T17:48:05.688Z,501.00
2022-08-02T17:53:01.167Z,494.00
2022-08-02T17:58:02.893Z,500.00
2022-08-02T18:02:59.020Z,500.00
2022-08-02T18:08:01.053Z,503.00
2022-08-02T18:12:58.504Z,502.00
2022-08-02T18:17:57.820Z,500.00
2022-08-02T18:22:58.466Z,493.00
2022-08-02T18:27:57.377Z,494.00
2022-08-02T18:34:00.400Z,501.00
2022-08-02T18:37:58.492Z,503.00
2022-08-02T18:42:54.042Z,502.00
2022-08-02T18:47:54.264Z,522.00
2022-08-02T18:52:51.573Z,531.00
2022-08-02T18:57:51.784Z,534.00
2022-08-02T19:02:50.990Z,573.00
2022-08-02T19:07:52.870Z,565.00
2022-08-02T19:12:51.600Z,552.00
2022-08-02T19:17:55.598Z,544.00
2022-08-02T19:22:50.155Z,545.00
2022-08-02T19:27:47.568Z,551.00
2022-08-02T19:32:59.367Z,575.00
2022-08-02T19:37:46.068Z,584.00
2022-08-02T19:44:24.598Z,596.00
2022-08-02T19:47:44.362Z,553.00
2022-08-02T19:52:45.532Z,566.00
2022-08-02T19:57:42.791Z,568.00
2022-08-02T20:02:46.570Z,577.00
2022-08-02T20:07:54.742Z,574.00
2022-08-02T20:12:40.563Z,571.00
2022-08-02T20:17:40.837Z,580.00
2022-08-02T20:22:38.973Z,583.00
2022-08-02T20:27:38.264Z,582.00
2022-08-02T20:32:37.423Z,582.00
2022-08-02T20:37:59.617Z,583.00
2022-08-02T20:42:35.959Z,592.00
2022-08-02T20:47:39.864Z,602.00
2022-08-02T20:52:35.534Z,592.00
2022-08-02T20:57:36.092Z,571.00
2022-08-02T21:02:32.908Z,562.00
2022-08-02T21:07:33.095Z,542.00
2022-08-02T21:12:31.647Z,554.00
2022-08-02T21:17:47.253Z,551.00
2022-08-02T21:22:30.925Z,651.00
2022-08-02T21:27:53.037Z,600.00
2022-08-02T21:32:29.225Z,580.00
2022-08-02T21:37:33.168Z,587.00
2022-08-02T21:42:26.668Z,571.00
2022-08-02T21:47:26.977Z,586.00
2022-08-02T21:52:28.267Z,583.00
2022-08-02T21:57:24.545Z,580.00
2022-08-02T22:02:30.804Z,587.00
2022-08-02T22:07:24.642Z,568.00
2022-08-02T22:12:26.377Z,574.00
2022-08-02T22:17:21.372Z,583.00
2022-08-02T22:22:28.034Z,563.00
2022-08-02T22:27:19.860Z,576.00
2022-08-02T22:32:21.193Z,583.00
2022-08-02T22:38:14.580Z,580.00
2022-08-02T22:42:17.494Z,585.00
2022-08-02T22:47:16.514Z,585.00
2022-08-02T22:52:16.956Z,610.00
2022-08-02T22:57:14.929Z,579.00
2022-08-02T23:02:14.437Z,585.00
2022-08-02T23:07:13.411Z,599.00
2022-08-02T23:12:14.048Z,598.00
2022-08-02T23:17:13.974Z,742.00
2022-08-02T23:22:12.141Z,696.00
2022-08-02T23:27:11.271Z,657.00
2022-08-02T23:32:09.726Z,658.00
2022-08-02T23:37:09.907Z,595.00
2022-08-02T23:42:08.060Z,631.00
2022-08-02T23:47:07.178Z,664.00
2022-08-02T23:52:07.519Z,632.00
2022-08-02T23:57:19.596Z,597.00
